Time;durP1;ratioP1;P1;durP2;ratioP2;P2;SDS_P1;SDS_P2;PMS_P1;PMS_P2;Temp;Humidity;BMP_temperature;BMP_pressure;BME280_temperature;BME280_humidity;BME280_pressure;Samples;Min_cycle;Max_cycle;Signal;HPM_P1;HPM_P2
2023/03/05 00:00:50;;;;;;;18.27;3.17;;;5.70;56.60;;;;;;5015221;28;20465;-72
2023/03/05 00:03:16;;;;;;;12.20;3.00;;;5.70;56.90;;;;;;5014672;28;20389;-74
2023/03/05 00:05:41;;;;;;;10.13;2.13;;;5.70;56.50;;;;;;5015501;28;20381;-76
2023/03/05 00:08:07;;;;;;;17.10;3.08;;;5.60;56.70;;;;;;5015643;28;20847;-75
2023/03/05 00:10:32;;;;;;;11.00;2.80;;;5.60;57.40;;;;;;5015219;28;20424;-74
2023/03/05 00:12:58;;;;;;;11.70;3.00;;;5.50;58.30;;;;;;5014905;28;20439;-72
2023/03/05 00:15:24;;;;;;;11.43;2.85;;;5.50;58.20;;;;;;5015689;28;20789;-75
2023/03/05 00:17:49;;;;;;;9.53;3.20;;;5.50;58.20;;;;;;5015202;28;20393;-76
2023/03/05 00:20:15;;;;;;;16.93;3.67;;;5.40;58.40;;;;;;5015250;28;20395;-75
2023/03/05 00:22:40;;;;;;;10.07;2.60;;;5.50;59.20;;;;;;5017464;28;20499;-74
2023/03/05 00:25:06;;;;;;;17.38;2.72;;;5.60;57.80;;;;;;5015916;28;20413;-74
2023/03/05 00:27:32;;;;;;;11.30;2.10;;;5.60;57.10;;;;;;4997492;28;20905;-75
2023/03/05 00:29:57;;;;;;;12.70;2.80;;;5.50;57.60;;;;;;5014399;28;20396;-75
2023/03/05 00:32:23;;;;;;;14.90;2.80;;;5.50;58.30;;;;;;5013670;28;20461;-74
2023/03/05 00:34:48;;;;;;;14.87;2.87;;;5.50;58.10;;;;;;5014309;28;20393;-73
2023/03/05 00:37:15;;;;;;;18.45;3.15;;;5.40;58.30;;;;;;5030451;28;20396;-75
2023/03/05 00:39:40;;;;;;;19.70;3.38;;;5.40;58.90;;;;;;5019462;28;20770;-76
2023/03/05 00:42:06;;;;;;;13.18;3.40;;;5.50;59.40;;;;;;5013307;28;20468;-74
2023/03/05 00:44:31;;;;;;;15.55;3.20;;;5.50;58.80;;;;;;5013316;28;20879;-75
2023/03/05 00:46:57;;;;;;;14.80;2.60;;;5.50;59.10;;;;;;5013235;28;20385;-74
2023/03/05 00:49:23;;;;;;;10.90;3.47;;;5.50;59.50;;;;;;5013092;28;20841;-74
2023/03/05 00:51:49;;;;;;;13.43;2.63;;;5.50;59.80;;;;;;4995938;28;20400;-74
2023/03/05 00:54:14;;;;;;;12.52;3.97;;;5.50;60.80;;;;;;5013001;28;20731;-76
2023/03/05 00:56:40;;;;;;;13.97;2.83;;;5.40;60.90;;;;;;5013483;28;20458;-75
2023/03/05 00:59:05;;;;;;;11.70;2.57;;;5.40;61.60;;;;;;5014456;28;20404;-74
2023/03/05 01:01:31;;;;;;;9.53;2.80;;;5.40;61.50;;;;;;5015881;28;20389;-74
2023/03/05 01:03:58;;;;;;;8.23;2.80;;;5.40;62.20;;;;;;5019654;28;20416;-76
2023/03/05 01:06:24;;;;;;;21.25;2.80;;;5.40;62.30;;;;;;5017147;28;20411;-75
2023/03/05 01:08:49;;;;;;;12.53;2.50;;;5.50;61.20;;;;;;5013956;28;20392;-74
2023/03/05 01:11:15;;;;;;;14.60;3.33;;;5.40;61.30;;;;;;5012447;28;20394;-76
2023/03/05 01:13:40;;;;;;;14.15;2.50;;;5.40;61.30;;;;;;5012856;28;20381;-76
2023/03/05 01:16:06;;;;;;;8.60;2.78;;;5.40;61.30;;;;;;5013498;28;20377;-74
2023/03/05 01:18:32;;;;;;;8.55;2.38;;;5.40;62.50;;;;;;5013137;28;20519;-75
2023/03/05 01:20:58;;;;;;;6.53;2.22;;;5.30;62.60;;;;;;5013164;28;20599;-74
2023/03/05 01:23:24;;;;;;;11.10;2.90;;;5.30;63.00;;;;;;5012835;28;20377;-75
2023/03/05 01:25:57;;;;;;;13.97;3.20;;;5.30;63.50;;;;;;5012658;28;20395;-74
2023/03/05 01:28:23;;;;;;;14.18;3.40;;;5.30;64.20;;;;;;5013682;28;20413;-77
2023/03/05 01:30:48;;;;;;;11.70;2.60;;;5.20;63.30;;;;;;5013738;28;20396;-74
2023/03/05 01:33:14;;;;;;;11.57;3.33;;;5.30;63.70;;;;;;5013963;28;20747;-76
2023/03/05 01:35:40;;;;;;;14.13;3.38;;;5.30;64.60;;;;;;5029281;28;20484;-76
2023/03/05 01:38:05;;;;;;;13.15;3.17;;;5.30;63.30;;;;;;5019818;28;20408;-74
2023/03/05 01:40:31;;;;;;;11.67;3.20;;;5.30;63.90;;;;;;5021276;28;20472;-74
2023/03/05 01:43:01;;;;;;;10.00;3.15;;;5.20;63.90;;;;;;5021962;28;20419;-74
2023/03/05 01:45:31;;;;;;;15.35;3.80;;;5.20;64.00;;;;;;5022134;28;20385;-75
2023/03/05 01:47:56;;;;;;;12.13;3.83;;;5.30;64.10;;;;;;5019002;28;20393;-75
2023/03/05 01:50:24;;;;;;;14.57;2.88;;;5.30;63.90;;;;;;5018414;28;20395;-74
2023/03/05 01:53:01;;;;;;;12.18;3.00;;;5.30;64.10;;;;;;5017941;28;20385;-74
2023/03/05 01:55:29;;;;;;;16.35;3.10;;;5.30;64.20;;;;;;5023559;28;20385;-72
2023/03/05 01:57:59;;;;;;;13.20;3.20;;;5.30;63.70;;;;;;5027454;28;20436;-72
2023/03/05 02:00:29;;;;;;;14.07;2.90;;;5.30;63.70;;;;;;5026289;28;20411;-73
2023/03/05 02:03:00;;;;;;;14.20;2.30;;;5.20;64.00;;;;;;5017352;28;20467;-74
2023/03/05 02:05:31;;;;;;;11.20;2.80;;;5.10;64.80;;;;;;5015085;28;20482;-75
2023/03/05 02:08:00;;;;;;;13.70;3.38;;;5.10;65.50;;;;;;5013956;28;20388;-75
2023/03/05 02:10:29;;;;;;;14.05;3.30;;;5.10;66.10;;;;;;5012468;28;20765;-76
2023/03/05 02:12:58;;;;;;;14.85;3.75;;;5.10;65.80;;;;;;5012432;28;20416;-74
2023/03/05 02:15:23;;;;;;;13.50;3.80;;;5.10;66.20;;;;;;5011670;28;20897;-74
2023/03/05 02:17:49;;;;;;;14.82;3.50;;;5.10;68.20;;;;;;5014771;28;20392;-74
2023/03/05 02:20:25;;;;;;;16.73;3.50;;;5.20;64.70;;;;;;5015169;28;20381;-74
2023/03/05 02:22:50;;;;;;;12.13;2.90;;;5.10;66.10;;;;;;5014775;28;20447;-75
2023/03/05 02:25:23;;;;;;;9.65;2.90;;;5.00;65.00;;;;;;5015008;28;20385;-75
2023/03/05 02:28:30;;;;;;;11.70;2.53;;;5.10;63.10;;;;;;5014764;28;20886;-76
2023/03/05 02:30:56;;;;;;;10.45;2.70;;;5.30;55.60;;;;;;4988147;28;20381;-77
2023/03/05 02:33:22;;;;;;;12.73;3.38;;;5.20;57.10;;;;;;5014579;28;20424;-75
2023/03/05 02:35:48;;;;;;;14.03;4.07;;;5.20;59.10;;;;;;5014829;28;20385;-76
2023/03/05 02:38:15;;;;;;;16.55;3.75;;;5.30;60.70;;;;;;5015102;28;20407;-75
2023/03/05 02:40:41;;;;;;;15.85;3.50;;;5.30;59.90;;;;;;5014658;28;20393;-74
2023/03/05 02:43:07;;;;;;;15.37;3.50;;;5.40;58.90;;;;;;5014521;28;20397;-76
2023/03/05 02:45:33;;;;;;;9.57;2.90;;;5.20;59.60;;;;;;5014177;28;20886;-76
2023/03/05 02:47:58;;;;;;;10.30;2.80;;;5.30;59.90;;;;;;5014321;28;20401;-74
2023/03/05 02:50:26;;;;;;;9.10;3.13;;;5.50;57.10;;;;;;5014385;28;20399;-74
2023/03/05 02:52:52;;;;;;;11.20;2.95;;;5.50;56.80;;;;;;5014359;28;20384;-73
2023/03/05 02:55:18;;;;;;;15.13;3.08;;;5.50;58.70;;;;;;5014370;28;20870;-75
2023/03/05 02:57:43;;;;;;;13.13;3.17;;;5.50;58.90;;;;;;5013611;28;20396;-75
2023/03/05 03:00:09;;;;;;;15.10;3.50;;;5.30;60.40;;;;;;5013650;28;20448;-75
2023/03/05 03:02:35;;;;;;;12.77;4.13;;;5.10;64.30;;;;;;5015034;28;20392;-74
2023/03/05 03:05:01;;;;;;;13.57;3.63;;;5.20;63.50;;;;;;5013326;28;20467;-73
2023/03/05 03:07:26;;;;;;;18.05;4.28;;;5.20;64.90;;;;;;5013148;28;20396;-75
2023/03/05 03:09:52;;;;;;;12.90;3.60;;;5.20;65.40;;;;;;5013398;28;20721;-75
2023/03/05 03:12:17;;;;;;;13.23;3.53;;;5.40;63.40;;;;;;5013906;28;20443;-76
2023/03/05 03:14:43;;;;;;;13.37;3.60;;;5.50;61.80;;;;;;5018954;28;20405;-75
2023/03/05 03:17:11;;;;;;;16.17;3.15;;;5.50;61.60;;;;;;5016904;28;20447;-74
2023/03/05 03:19:38;;;;;;;7.68;3.40;;;5.30;63.00;;;;;;5015022;28;20412;-74
2023/03/05 03:22:06;;;;;;;20.13;4.93;;;5.20;65.10;;;;;;5014851;28;20396;-75
2023/03/05 03:24:33;;;;;;;10.60;3.20;;;5.20;65.80;;;;;;5014696;28;20377;-74
2023/03/05 03:26:59;;;;;;;15.88;3.97;;;5.20;65.70;;;;;;5014730;28;20874;-75
2023/03/05 03:29:24;;;;;;;10.73;3.70;;;5.10;65.60;;;;;;5014163;28;20389;-75
2023/03/05 03:31:50;;;;;;;16.23;4.10;;;5.00;69.10;;;;;;5014172;28;21072;-75
2023/03/05 03:34:16;;;;;;;13.02;3.40;;;5.10;69.10;;;;;;5016741;28;20396;-74
2023/03/05 03:36:43;;;;;;;14.50;3.10;;;5.20;65.40;;;;;;5015793;28;20393;-74
2023/03/05 03:39:09;;;;;;;16.55;4.15;;;5.10;67.00;;;;;;5015201;28;20403;-77
2023/03/05 03:41:39;;;;;;;21.23;4.45;;;5.10;66.50;;;;;;5013905;28;20388;-75
2023/03/05 03:44:07;;;;;;;13.90;3.55;;;5.10;64.40;;;;;;5016769;28;20416;-75
2023/03/05 03:46:33;;;;;;;16.23;3.80;;;5.00;63.80;;;;;;5016627;28;20389;-74
2023/03/05 03:48:59;;;;;;;14.35;3.92;;;4.90;66.70;;;;;;5015402;28;20719;-75
2023/03/05 03:51:24;;;;;;;15.45;3.90;;;5.10;66.10;;;;;;5014456;28;20393;-75
2023/03/05 03:53:50;;;;;;;7.90;3.40;;;5.00;66.40;;;;;;5013876;28;20447;-74
2023/03/05 03:56:15;;;;;;;15.60;3.60;;;5.00;66.30;;;;;;5013399;28;20396;-72
2023/03/05 03:58:41;;;;;;;8.17;2.90;;;5.00;67.00;;;;;;5013589;28;20928;-76
2023/03/05 04:01:06;;;;;;;9.10;2.93;;;5.10;65.10;;;;;;5013114;28;20950;-76
2023/03/05 04:03:32;;;;;;;14.13;3.63;;;5.00;64.60;;;;;;5012731;28;20417;-74
2023/03/05 04:05:57;;;;;;;15.20;3.20;;;5.00;64.50;;;;;;5012506;28;20392;-75
2023/03/05 04:08:23;;;;;;;11.00;2.97;;;5.10;64.90;;;;;;5012751;28;20395;-75
2023/03/05 04:10:48;;;;;;;17.40;3.20;;;5.00;66.00;;;;;;5012774;28;20400;-74
2023/03/05 04:13:14;;;;;;;7.65;2.55;;;5.00;66.10;;;;;;5012749;28;20948;-74
2023/03/05 04:15:40;;;;;;;14.68;3.33;;;5.00;66.00;;;;;;5012666;28;20388;-74
2023/03/05 04:18:05;;;;;;;12.27;3.17;;;5.00;66.60;;;;;;5012381;28;20495;-74
2023/03/05 04:20:31;;;;;;;12.40;2.90;;;5.10;65.50;;;;;;5012384;28;20407;-74
2023/03/05 04:22:56;;;;;;;6.47;2.90;;;5.10;65.10;;;;;;5012226;28;20458;-75
2023/03/05 04:25:22;;;;;;;9.87;3.20;;;5.10;66.00;;;;;;5012605;28;20404;-75
2023/03/05 04:27:47;;;;;;;11.10;3.10;;;4.90;67.10;;;;;;5011847;28;20393;-75
2023/03/05 04:30:16;;;;;;;9.67;3.27;;;4.90;68.00;;;;;;5012907;28;20385;-75
2023/03/05 04:32:42;;;;;;;9.80;3.42;;;4.90;68.50;;;;;;5013053;28;20387;-75
2023/03/05 04:35:08;;;;;;;9.93;3.13;;;5.00;67.80;;;;;;5013139;28;20391;-75
2023/03/05 04:37:33;;;;;;;11.85;3.58;;;4.90;68.90;;;;;;5012049;28;20389;-75
2023/03/05 04:39:59;;;;;;;17.90;4.50;;;4.80;69.70;;;;;;5011167;28;20416;-76
2023/03/05 04:42:25;;;;;;;10.97;3.00;;;4.90;69.60;;;;;;5012524;28;20384;-74
2023/03/05 04:44:50;;;;;;;8.80;3.17;;;4.80;70.30;;;;;;5012635;28;20509;-76
2023/03/05 04:47:17;;;;;;;8.45;3.17;;;4.90;69.60;;;;;;5016203;28;20381;-76
2023/03/05 04:49:43;;;;;;;10.63;3.05;;;5.00;68.10;;;;;;5021218;28;20400;-74
2023/03/05 04:52:13;;;;;;;6.32;2.80;;;4.90;67.20;;;;;;5016231;28;20397;-74
2023/03/05 04:54:39;;;;;;;12.23;2.92;;;5.00;67.40;;;;;;5015567;28;20385;-72
2023/03/05 04:57:05;;;;;;;10.70;2.90;;;4.90;67.40;;;;;;5012387;28;20484;-75
2023/03/05 04:59:30;;;;;;;11.27;2.83;;;4.90;67.80;;;;;;4995053;28;20408;-75
2023/03/05 05:01:56;;;;;;;7.97;2.90;;;4.90;68.00;;;;;;5011784;28;20380;-75
2023/03/05 05:04:22;;;;;;;11.83;3.13;;;4.90;68.70;;;;;;5012065;28;20472;-74
2023/03/05 05:06:48;;;;;;;8.65;2.80;;;5.00;67.70;;;;;;5012156;28;20867;-76
2023/03/05 05:09:14;;;;;;;12.35;3.03;;;4.90;67.40;;;;;;5027579;28;20389;-75
2023/03/05 05:11:39;;;;;;;16.77;3.13;;;5.00;66.60;;;;;;5012914;28;20505;-75
2023/03/05 05:14:06;;;;;;;14.07;3.42;;;4.90;66.80;;;;;;5013280;28;20450;-76
2023/03/05 05:16:31;;;;;;;16.15;3.30;;;5.00;67.20;;;;;;5012649;28;20461;-74
2023/03/05 05:18:57;;;;;;;15.00;3.40;;;4.90;67.80;;;;;;4994746;28;20440;-76
2023/03/05 05:21:22;;;;;;;11.88;2.88;;;4.90;67.40;;;;;;5012300;28;20405;-76
2023/03/05 05:23:48;;;;;;;10.43;3.30;;;4.90;65.90;;;;;;5012007;28;20608;-74
2023/03/05 05:26:14;;;;;;;10.83;3.07;;;4.90;67.30;;;;;;5011059;28;20380;-74
2023/03/05 05:28:42;;;;;;;10.20;2.80;;;4.80;68.20;;;;;;5011166;28;20889;-74
2023/03/05 05:31:13;;;;;;;8.10;2.85;;;4.70;69.50;;;;;;5012195;28;20389;-74
2023/03/05 05:33:38;;;;;;;15.43;3.50;;;4.80;66.90;;;;;;5027466;28;20945;-74
2023/03/05 05:36:06;;;;;;;11.88;3.33;;;4.70;67.80;;;;;;5011666;28;20552;-75
2023/03/05 05:38:32;;;;;;;10.18;3.00;;;4.80;68.30;;;;;;5011393;28;20427;-76
2023/03/05 05:41:05;;;;;;;11.73;2.72;;;4.90;66.50;;;;;;5013093;28;20396;-74
2023/03/05 05:43:31;;;;;;;12.02;3.42;;;5.20;62.50;;;;;;5013609;28;20388;-74
2023/03/05 05:46:00;;;;;;;11.45;3.28;;;5.20;60.30;;;;;;5013643;28;20420;-73
2023/03/05 05:48:28;;;;;;;12.85;2.90;;;5.20;60.80;;;;;;5013630;28;20404;-74
2023/03/05 05:50:54;;;;;;;11.55;3.70;;;5.10;62.60;;;;;;5017262;28;20403;-72
2023/03/05 05:53:20;;;;;;;14.70;3.90;;;5.00;63.70;;;;;;5020822;28;20463;-75
2023/03/05 05:55:45;;;;;;;11.50;3.40;;;5.00;64.40;;;;;;5024141;28;20400;-74
2023/03/05 05:58:11;;;;;;;15.13;3.37;;;5.00;64.90;;;;;;5023010;28;20530;-73
2023/03/05 06:00:37;;;;;;;15.15;3.60;;;5.00;64.50;;;;;;5017259;28;20411;-74
2023/03/05 06:03:03;;;;;;;12.65;2.90;;;4.80;66.60;;;;;;5014852;28;20388;-73
2023/03/05 06:05:28;;;;;;;11.23;3.00;;;4.70;67.70;;;;;;5015721;28;20389;-75
2023/03/05 06:07:54;;;;;;;11.85;3.28;;;4.80;68.50;;;;;;5030704;28;20428;-73
2023/03/05 06:10:19;;;;;;;12.02;2.83;;;4.80;66.70;;;;;;5016266;28;20423;-74
2023/03/05 06:12:45;;;;;;;8.40;3.53;;;4.80;65.40;;;;;;5015501;28;20489;-73
2023/03/05 06:15:10;;;;;;;14.47;3.90;;;4.70;66.50;;;;;;5015442;28;20416;-74
2023/03/05 06:17:36;;;;;;;12.50;3.60;;;4.70;67.50;;;;;;5015073;28;20392;-75
2023/03/05 06:20:03;;;;;;;13.33;3.20;;;4.70;66.20;;;;;;5014828;28;20774;-76
2023/03/05 06:22:28;;;;;;;10.98;3.65;;;4.70;66.70;;;;;;5015063;28;20410;-75
2023/03/05 06:24:54;;;;;;;12.68;3.40;;;4.70;67.70;;;;;;5014550;28;20874;-75
2023/03/05 06:27:20;;;;;;;13.27;4.18;;;4.80;65.50;;;;;;5014899;28;20451;-74
2023/03/05 06:29:45;;;;;;;16.40;4.00;;;4.90;65.20;;;;;;5023185;28;20415;-73
2023/03/05 06:32:11;;;;;;;13.20;3.90;;;4.90;64.30;;;;;;5024114;28;20392;-74
2023/03/05 06:34:36;;;;;;;9.00;3.27;;;5.00;63.00;;;;;;5026071;28;20394;-73
2023/03/05 06:37:02;;;;;;;12.73;3.53;;;5.10;59.80;;;;;;5024066;28;20423;-73
2023/03/05 06:39:30;;;;;;;15.50;3.80;;;4.90;61.40;;;;;;5023256;28;20420;-72
2023/03/05 06:41:55;;;;;;;9.80;3.40;;;5.00;60.60;;;;;;5023802;28;20451;-70
2023/03/05 06:44:21;;;;;;;14.10;3.67;;;5.20;58.90;;;;;;5023994;28;20381;-73
2023/03/05 06:46:47;;;;;;;11.70;3.33;;;5.20;58.20;;;;;;5023310;28;20377;-72
2023/03/05 06:49:12;;;;;;;13.20;3.20;;;5.20;58.50;;;;;;5023554;28;20821;-74
2023/03/05 06:51:39;;;;;;;13.90;4.30;;;5.20;58.90;;;;;;5017441;28;20414;-73
2023/03/05 06:54:08;;;;;;;16.57;3.50;;;5.20;59.70;;;;;;5022305;28;20419;-72
2023/03/05 06:56:38;;;;;;;12.32;3.67;;;5.30;58.20;;;;;;5016845;28;20466;-74
2023/03/05 06:59:04;;;;;;;9.27;3.33;;;5.40;57.30;;;;;;5014255;28;20400;-74
2023/03/05 07:01:30;;;;;;;14.15;4.40;;;5.40;57.00;;;;;;5013671;28;20396;-74
2023/03/05 07:03:59;;;;;;;11.55;4.35;;;5.50;56.90;;;;;;5014562;28;20512;-74
2023/03/05 07:06:28;;;;;;;12.00;4.20;;;5.40;57.00;;;;;;5014709;28;20392;-74
2023/03/05 07:08:55;;;;;;;15.57;4.80;;;5.40;56.80;;;;;;5015020;28;20465;-74
2023/03/05 07:11:21;;;;;;;13.80;4.60;;;5.30;57.90;;;;;;5014869;28;20758;-75
2023/03/05 07:13:47;;;;;;;13.23;4.22;;;5.30;58.30;;;;;;5015815;28;20447;-74
2023/03/05 07:16:19;;;;;;;11.65;4.35;;;5.30;58.70;;;;;;5016221;28;20890;-75
2023/03/05 07:18:45;;;;;;;13.18;4.30;;;5.20;59.10;;;;;;4997309;28;20498;-75
2023/03/05 07:21:33;;;;;;;11.43;4.13;;;5.20;59.50;;;;;;4996496;28;20904;-73
2023/03/05 07:24:00;;;;;;;11.00;4.32;;;5.30;59.60;;;;;;5013906;28;20451;-75
2023/03/05 07:26:26;;;;;;;11.35;4.70;;;5.30;59.80;;;;;;5014038;28;20472;-76
2023/03/05 07:28:53;;;;;;;16.65;4.80;;;5.10;61.00;;;;;;5013615;28;20385;-75
2023/03/05 07:31:21;;;;;;;12.73;4.20;;;5.30;60.10;;;;;;5013736;28;20424;-75
2023/03/05 07:33:49;;;;;;;14.00;4.15;;;5.40;58.80;;;;;;5013910;28;20472;-75
2023/03/05 07:36:15;;;;;;;10.60;4.15;;;5.30;59.20;;;;;;5013687;28;20451;-75
2023/03/05 07:38:41;;;;;;;14.68;4.35;;;5.30;60.60;;;;;;5012997;28;20499;-75
2023/03/05 07:41:12;;;;;;;15.37;4.30;;;5.40;59.60;;;;;;5013461;28;20417;-74
2023/03/05 07:43:38;;;;;;;9.82;4.70;;;5.50;59.10;;;;;;5013368;28;20821;-74
2023/03/05 07:46:06;;;;;;;12.73;4.22;;;5.60;58.40;;;;;;5013965;28;20715;-74
2023/03/05 07:48:31;;;;;;;19.27;4.80;;;5.70;57.50;;;;;;5020031;28;20443;-72
2023/03/05 07:51:09;;;;;;;16.42;4.45;;;5.80;57.30;;;;;;5021419;28;20385;-76
2023/03/05 07:53:35;;;;;;;12.63;4.47;;;5.70;57.70;;;;;;5019063;28;20455;-75
2023/03/05 07:56:01;;;;;;;14.10;4.32;;;5.80;57.10;;;;;;5014421;28;20550;-75
2023/03/05 07:58:26;;;;;;;9.85;4.30;;;5.80;56.30;;;;;;5014224;28;20405;-74
2023/03/05 08:00:52;;;;;;;14.43;4.50;;;5.70;57.00;;;;;;5013678;28;20392;-75
2023/03/05 08:03:18;;;;;;;12.63;4.70;;;5.80;56.50;;;;;;5013819;28;20472;-74
2023/03/05 08:05:43;;;;;;;16.50;4.50;;;5.70;57.90;;;;;;5013900;28;20471;-75
2023/03/05 08:08:09;;;;;;;16.92;4.03;;;5.70;56.80;;;;;;5014859;28;20874;-74
2023/03/05 08:10:36;;;;;;;14.88;4.40;;;5.70;57.10;;;;;;5017171;28;20385;-74
2023/03/05 08:13:02;;;;;;;16.65;4.90;;;5.70;58.10;;;;;;5017402;28;20427;-73
2023/03/05 08:15:29;;;;;;;19.08;5.30;;;5.80;56.80;;;;;;5017497;28;20392;-73
2023/03/05 08:17:55;;;;;;;12.18;5.25;;;5.70;57.50;;;;;;5017523;28;20825;-76
2023/03/05 08:20:21;;;;;;;13.20;4.40;;;5.80;56.60;;;;;;5015874;28;20389;-74
2023/03/05 08:22:46;;;;;;;16.38;5.95;;;5.90;55.80;;;;;;5017178;28;20385;-75
2023/03/05 08:25:12;;;;;;;16.50;4.83;;;5.80;56.30;;;;;;5017932;28;20753;-76
2023/03/05 08:27:40;;;;;;;29.53;6.70;;;5.90;55.30;;;;;;5018826;28;20775;-75
2023/03/05 08:30:07;;;;;;;20.65;5.50;;;5.90;56.20;;;;;;5015206;28;20895;-76
2023/03/05 08:32:33;;;;;;;19.75;5.35;;;6.00;55.60;;;;;;5018651;28;20436;-74
2023/03/05 08:34:58;;;;;;;18.15;5.18;;;6.10;54.70;;;;;;5018511;28;20388;-73
2023/03/05 08:37:24;;;;;;;19.40;5.00;;;6.10;54.70;;;;;;5017422;28;20391;-76
2023/03/05 08:39:50;;;;;;;13.30;4.20;;;6.10;54.50;;;;;;5013028;28;20410;-75
2023/03/05 08:42:15;;;;;;;11.03;4.30;;;6.20;54.10;;;;;;5013139;28;20385;-75
2023/03/05 08:44:41;;;;;;;12.50;4.10;;;6.20;53.80;;;;;;5012448;28;20376;-74
2023/03/05 08:47:06;;;;;;;11.93;4.10;;;6.20;54.80;;;;;;5012907;28;20396;-73
2023/03/05 08:49:32;;;;;;;14.53;4.30;;;6.10;54.40;;;;;;5013276;28;20431;-75
2023/03/05 08:51:57;;;;;;;11.90;4.40;;;6.10;55.90;;;;;;5014326;28;20397;-75
2023/03/05 08:54:23;;;;;;;13.27;4.33;;;6.10;57.50;;;;;;5015054;28;20396;-75
2023/03/05 08:56:49;;;;;;;12.37;4.27;;;6.10;58.40;;;;;;5014374;28;20403;-75
2023/03/05 08:59:14;;;;;;;11.07;4.20;;;6.00;59.40;;;;;;5014132;28;20437;-74
2023/03/05 09:01:40;;;;;;;13.18;5.25;;;6.10;58.30;;;;;;5013666;28;20816;-74
2023/03/05 09:04:06;;;;;;;12.10;4.60;;;6.10;60.40;;;;;;5013073;28;20424;-76
2023/03/05 09:06:33;;;;;;;12.47;4.30;;;6.20;58.70;;;;;;5011291;28;20389;-73
2023/03/05 09:08:59;;;;;;;15.95;5.28;;;6.40;58.00;;;;;;5011031;28;20758;-76
2023/03/05 09:11:24;;;;;;;15.10;5.05;;;6.40;56.30;;;;;;5011903;28;20389;-75
2023/03/05 09:13:50;;;;;;;9.60;4.30;;;6.50;54.10;;;;;;5013275;28;20457;-74
2023/03/05 09:16:17;;;;;;;12.53;4.93;;;6.50;50.90;;;;;;5013575;28;20419;-74
2023/03/05 09:18:43;;;;;;;13.10;4.80;;;6.40;52.00;;;;;;5012696;28;20419;-75
2023/03/05 09:21:12;;;;;;;15.02;4.65;;;6.30;53.00;;;;;;5012640;28;20957;-74
2023/03/05 09:23:38;;;;;;;14.35;5.13;;;6.40;54.10;;;;;;5013130;28;20818;-73
2023/03/05 09:26:06;;;;;;;14.10;4.13;;;6.40;54.00;;;;;;5017312;28;20415;-73
2023/03/05 09:28:31;;;;;;;11.93;4.10;;;6.50;52.00;;;;;;5018846;28;20400;-72
2023/03/05 09:31:01;;;;;;;13.20;4.25;;;6.40;52.90;;;;;;5019148;28;20391;-75
2023/03/05 09:33:26;;;;;;;12.15;4.38;;;6.30;55.10;;;;;;5019638;28;20385;-76
2023/03/05 09:35:52;;;;;;;15.10;5.13;;;6.40;53.90;;;;;;5019492;28;20397;-75
2023/03/05 09:38:18;;;;;;;7.82;3.55;;;6.60;51.60;;;;;;5018687;28;20431;-75
2023/03/05 09:41:12;;;;;;;9.57;4.22;;;6.80;50.20;;;;;;5018835;28;20746;-75
2023/03/05 09:44:20;;;;;;;11.60;4.80;;;7.00;49.20;;;;;;5021609;28;20435;-74
2023/03/05 09:46:48;;;;;;;9.60;4.80;;;7.10;50.50;;;;;;5019857;28;20820;-75
2023/03/05 09:49:16;;;;;;;10.93;5.05;;;7.40;46.10;;;;;;5021231;28;20399;-76
2023/03/05 09:51:45;;;;;;;12.40;6.03;;;7.40;44.40;;;;;;5023437;28;20472;-75
2023/03/05 09:54:21;;;;;;;15.35;5.65;;;7.20;46.50;;;;;;5026338;28;20389;-75
2023/03/05 09:56:52;;;;;;;10.50;5.35;;;7.20;48.00;;;;;;5010320;28;20516;-72
2023/03/05 09:59:34;;;;;;;8.20;5.00;;;7.20;46.20;;;;;;5018564;28;20408;-75
2023/03/05 10:02:11;;;;;;;11.57;5.53;;;7.10;45.70;;;;;;5019411;28;20380;-75
2023/03/05 10:04:48;;;;;;;11.85;4.40;;;7.00;45.50;;;;;;5001762;28;20443;-74
2023/03/05 10:07:26;;;;;;;10.88;5.20;;;6.80;47.30;;;;;;5019524;28;20395;-73
2023/03/05 10:10:04;;;;;;;7.53;4.90;;;6.80;48.10;;;;;;5019706;28;20416;-75
2023/03/05 10:12:43;;;;;;;8.80;5.30;;;7.00;48.10;;;;;;5019490;28;20450;-76
2023/03/05 10:15:15;;;;;;;6.72;4.40;;;7.10;46.10;;;;;;5019388;28;20392;-74
2023/03/05 10:17:54;;;;;;;8.82;5.32;;;7.30;46.00;;;;;;5019503;28;20402;-75
2023/03/05 10:20:34;;;;;;;6.32;5.00;;;7.40;46.60;;;;;;5019457;28;20392;-75
2023/03/05 10:23:23;;;;;;;10.50;5.93;;;7.40;44.50;;;;;;5019860;28;20467;-76
2023/03/05 10:25:58;;;;;;;9.00;5.25;;;7.60;44.00;;;;;;5019003;28;20446;-75
2023/03/05 10:28:28;;;;;;;5.95;3.15;;;8.00;40.50;;;;;;5019303;28;20450;-74
2023/03/05 10:31:03;;;;;;;7.53;4.30;;;7.70;40.00;;;;;;5019814;28;20435;-74
2023/03/05 10:33:34;;;;;;;10.68;5.20;;;7.60;41.80;;;;;;5021466;28;20780;-74
2023/03/05 10:36:18;;;;;;;9.73;5.15;;;7.70;43.30;;;;;;5019012;28;20388;-75
2023/03/05 10:39:08;;;;;;;6.85;4.30;;;8.00;39.20;;;;;;5015821;28;20462;-74
2023/03/05 10:42:01;;;;;;;9.68;4.20;;;8.10;38.90;;;;;;5015520;28;20426;-72
2023/03/05 10:44:47;;;;;;;8.70;4.10;;;8.00;37.90;;;;;;5017330;28;20519;-75
2023/03/05 10:47:30;;;;;;;7.40;3.73;;;7.80;39.90;;;;;;5019747;28;20429;-74
2023/03/05 10:49:59;;;;;;;8.80;2.60;;;7.80;42.00;;;;;;5033522;28;20385;-74
2023/03/05 10:52:32;;;;;;;4.88;3.00;;;7.40;40.00;;;;;;5016869;28;20392;-74
2023/03/05 10:54:57;;;;;;;8.27;3.90;;;7.20;43.30;;;;;;5016477;28;20396;-76
2023/03/05 10:57:29;;;;;;;7.05;3.50;;;7.50;43.90;;;;;;5015698;28;20407;-74
2023/03/05 11:00:04;;;;;;;6.10;3.45;;;8.00;39.70;;;;;;5014870;28;20545;-74
2023/03/05 11:02:30;;;;;;;4.60;2.75;;;8.50;36.20;;;;;;5014777;28;20388;-73
2023/03/05 11:04:55;;;;;;;5.90;2.60;;;8.80;33.70;;;;;;5015831;28;20385;-75
2023/03/05 11:07:21;;;;;;;5.17;3.70;;;8.50;32.50;;;;;;5015480;28;20389;-76
2023/03/05 11:09:59;;;;;;;4.47;3.30;;;8.60;33.80;;;;;;5015232;28;20392;-76
2023/03/05 11:12:28;;;;;;;4.90;3.30;;;8.80;32.70;;;;;;5015724;28;20385;-75
2023/03/05 11:15:08;;;;;;;5.82;3.17;;;8.90;32.90;;;;;;5015449;28;20475;-76
2023/03/05 11:17:42;;;;;;;7.10;3.58;;;8.80;32.50;;;;;;5014187;28;20388;-76
2023/03/05 11:20:26;;;;;;;4.28;3.50;;;8.90;31.50;;;;;;5014268;28;20404;-74
2023/03/05 11:23:17;;;;;;;6.15;3.25;;;8.90;31.10;;;;;;5014568;28;20396;-75
2023/03/05 11:26:15;;;;;;;6.97;3.65;;;8.70;32.30;;;;;;5010663;28;20404;-75
2023/03/05 11:28:58;;;;;;;7.50;4.10;;;8.60;32.80;;;;;;5016112;28;20407;-74
2023/03/05 11:31:30;;;;;;;6.53;4.00;;;8.60;32.40;;;;;;4996682;28;20392;-74
2023/03/05 11:34:03;;;;;;;8.95;4.40;;;8.60;32.50;;;;;;4996206;28;20424;-76
2023/03/05 11:36:33;;;;;;;6.18;3.70;;;8.60;31.50;;;;;;5014047;28;20483;-74
2023/03/05 11:39:05;;;;;;;11.38;4.60;;;8.50;31.50;;;;;;5014463;28;20419;-74
2023/03/05 11:41:38;;;;;;;9.15;4.90;;;8.50;32.20;;;;;;5014344;28;20550;-76
2023/03/05 11:44:11;;;;;;;9.87;4.60;;;8.40;32.30;;;;;;5019133;28;20393;-75
2023/03/05 11:46:42;;;;;;;8.70;4.60;;;7.90;35.20;;;;;;5019810;28;20395;-74
2023/03/05 11:49:10;;;;;;;10.35;5.38;;;7.60;38.00;;;;;;4998080;28;20396;-74
2023/03/05 11:52:05;;;;;;;8.25;5.55;;;7.70;38.90;;;;;;5014732;28;20377;-76
2023/03/05 11:54:58;;;;;;;6.85;4.88;;;7.90;37.70;;;;;;5012391;28;20476;-74
2023/03/05 11:57:24;;;;;;;10.03;6.17;;;8.20;37.40;;;;;;5015963;28;20407;-73
2023/03/05 11:59:54;;;;;;;11.52;5.30;;;8.40;38.00;;;;;;5017746;28;20424;-75
2023/03/05 12:02:24;;;;;;;8.23;5.30;;;8.60;35.00;;;;;;5018582;28;20481;-75
2023/03/05 12:04:50;;;;;;;10.80;4.88;;;8.80;34.30;;;;;;5018664;28;20384;-76
2023/03/05 12:07:21;;;;;;;7.55;4.60;;;9.10;33.20;;;;;;5017494;28;20384;-74
2023/03/05 12:09:50;;;;;;;6.05;4.15;;;9.00;33.50;;;;;;5013569;28;20885;-76
2023/03/05 12:12:36;;;;;;;6.05;4.30;;;8.80;31.50;;;;;;5014343;28;20388;-73
2023/03/05 12:15:16;;;;;;;6.80;3.67;;;8.70;32.90;;;;;;5014026;28;20403;-75
2023/03/05 12:18:16;;;;;;;6.38;4.70;;;8.60;32.70;;;;;;5012822;28;20750;-74
2023/03/05 12:20:59;;;;;;;9.05;4.57;;;8.60;33.50;;;;;;5014696;28;20389;-75
2023/03/05 12:23:26;;;;;;;7.53;4.50;;;8.50;34.30;;;;;;5013031;28;20419;-75
2023/03/05 12:25:58;;;;;;;5.70;4.30;;;8.50;33.50;;;;;;5014484;28;20472;-75
2023/03/05 12:28:32;;;;;;;5.45;4.40;;;8.40;33.90;;;;;;5014439;28;20424;-75
2023/03/05 12:31:05;;;;;;;8.73;5.10;;;8.20;33.70;;;;;;5014270;28;20384;-77
2023/03/05 12:33:41;;;;;;;8.38;5.22;;;8.00;36.30;;;;;;5013811;28;20426;-73
2023/03/05 12:36:22;;;;;;;13.05;5.32;;;7.90;38.20;;;;;;5013385;28;20406;-74
2023/03/05 12:38:52;;;;;;;7.25;4.90;;;7.90;38.80;;;;;;5028286;28;20481;-75
2023/03/05 12:41:24;;;;;;;6.32;5.20;;;7.90;38.10;;;;;;5027394;28;20388;-75
2023/03/05 12:44:04;;;;;;;11.55;5.78;;;7.90;38.40;;;;;;5017677;28;20392;-75
2023/03/05 12:46:31;;;;;;;11.23;6.15;;;7.70;39.70;;;;;;5014309;28;20938;-76
2023/03/05 12:48:58;;;;;;;10.77;5.90;;;7.60;40.30;;;;;;5012322;28;20396;-74
2023/03/05 12:51:37;;;;;;;12.93;5.60;;;7.60;41.40;;;;;;5012061;28;20412;-75
2023/03/05 12:54:21;;;;;;;7.55;5.40;;;7.50;40.70;;;;;;5012516;28;20389;-74
2023/03/05 12:56:47;;;;;;;20.17;5.70;;;7.40;41.10;;;;;;5011749;28;20887;-75
2023/03/05 12:59:18;;;;;;;9.88;4.40;;;7.70;38.70;;;;;;5011308;28;20419;-74